sensor_id;sensor_type;location;lat;lon;timestamp;temperature;humidity
63407;SHT31;49543;45.892;10.838;2024-03-08T12:31:16;11.85;87.91
63407;SHT31;49543;45.892;10.838;2024-03-08T12:33:49;11.82;85.11
63407;SHT31;49543;45.892;10.838;2024-03-08T12:36:16;11.85;83.42
63407;SHT31;49543;45.892;10.838;2024-03-08T12:38:45;11.76;83.45
63407;SHT31;49543;45.892;10.838;2024-03-08T12:41:15;11.69;83.29
63407;SHT31;49543;45.892;10.838;2024-03-08T12:43:41;11.63;83.98
63407;SHT31;49543;45.892;10.838;2024-03-08T12:46:07;11.62;84.07
63407;SHT31;49543;45.892;10.838;2024-03-08T12:48:37;11.55;84.82
63407;SHT31;49543;45.892;10.838;2024-03-08T19:27:31;10.11;91.67
63407;SHT31;49543;45.892;10.838;2024-03-08T19:29:56;10.13;91.60
63407;SHT31;49543;45.892;10.838;2024-03-08T19:32:22;10.11;91.56
63407;SHT31;49543;45.892;10.838;2024-03-08T19:34:49;10.08;91.44
63407;SHT31;49543;45.892;10.838;2024-03-08T19:37:14;10.08;91.28
63407;SHT31;49543;45.892;10.838;2024-03-08T19:39:40;10.08;91.38
63407;SHT31;49543;45.892;10.838;2024-03-08T19:42:05;10.07;91.40
63407;SHT31;49543;45.892;10.838;2024-03-08T19:44:31;10.04;91.25
63407;SHT31;49543;45.892;10.838;2024-03-08T19:46:58;10.04;91.06
63407;SHT31;49543;45.892;10.838;2024-03-08T19:49:23;10.03;91.04
63407;SHT31;49543;45.892;10.838;2024-03-08T19:51:49;10.01;91.19
63407;SHT31;49543;45.892;10.838;2024-03-08T19:54:14;10.01;91.33
63407;SHT31;49543;45.892;10.838;2024-03-08T19:56:40;10.01;91.27
63407;SHT31;49543;45.892;10.838;2024-03-08T19:59:09;10.01;91.20
63407;SHT31;49543;45.892;10.838;2024-03-08T20:01:35;9.95;91.03
63407;SHT31;49543;45.892;10.838;2024-03-08T20:04:00;9.95;90.89
63407;SHT31;49543;45.892;10.838;2024-03-08T20:06:27;9.97;90.90
63407;SHT31;49543;45.892;10.838;2024-03-08T20:08:53;9.93;91.09
63407;SHT31;49543;45.892;10.838;2024-03-08T20:11:18;9.93;91.18
63407;SHT31;49543;45.892;10.838;2024-03-08T20:13:48;9.91;91.12
63407;SHT31;49543;45.892;10.838;2024-03-08T20:16:45;9.91;91.27
63407;SHT31;49543;45.892;10.838;2024-03-08T20:19:14;9.90;91.43
63407;SHT31;49543;45.892;10.838;2024-03-08T20:21:55;9.90;91.42
63407;SHT31;49543;45.892;10.838;2024-03-08T20:25:01;9.91;91.56
63407;SHT31;49543;45.892;10.838;2024-03-08T20:27:48;9.91;91.76
63407;SHT31;49543;45.892;10.838;2024-03-08T20:30:21;9.90;91.83
63407;SHT31;49543;45.892;10.838;2024-03-08T20:32:52;9.93;91.85
63407;SHT31;49543;45.892;10.838;2024-03-08T20:35:26;9.95;91.71
63407;SHT31;49543;45.892;10.838;2024-03-08T20:38:04;9.93;91.49
63407;SHT31;49543;45.892;10.838;2024-03-08T20:40:35;9.94;91.34
63407;SHT31;49543;45.892;10.838;2024-03-08T20:43:18;9.98;91.34
63407;SHT31;49543;45.892;10.838;2024-03-08T20:45:47;9.95;91.37
63407;SHT31;49543;45.892;10.838;2024-03-08T20:48:15;9.98;91.48
63407;SHT31;49543;45.892;10.838;2024-03-08T20:50:52;9.93;91.73
63407;SHT31;49543;45.892;10.838;2024-03-08T20:53:28;9.93;91.98
63407;SHT31;49543;45.892;10.838;2024-03-08T21:03:51;9.89;92.51
63407;SHT31;49543;45.892;10.838;2024-03-08T21:06:20;9.90;92.56
63407;SHT31;49543;45.892;10.838;2024-03-08T21:09:08;9.89;92.65
63407;SHT31;49543;45.892;10.838;2024-03-08T21:11:38;9.84;92.80
63407;SHT31;49543;45.892;10.838;2024-03-08T21:14:15;9.89;92.93
63407;SHT31;49543;45.892;10.838;2024-03-08T21:16:41;9.84;92.98
63407;SHT31;49543;45.892;10.838;2024-03-08T21:22:26;9.82;93.09
63407;SHT31;49543;45.892;10.838;2024-03-08T21:25:23;9.82;93.21
63407;SHT31;49543;45.892;10.838;2024-03-08T21:28:11;9.82;93.36
63407;SHT31;49543;45.892;10.838;2024-03-08T21:30:37;9.77;93.51
63407;SHT31;49543;45.892;10.838;2024-03-08T21:33:08;9.77;93.66
63407;SHT31;49543;45.892;10.838;2024-03-08T21:35:36;9.75;93.75
63407;SHT31;49543;45.892;10.838;2024-03-08T21:38:03;9.72;93.66
63407;SHT31;49543;45.892;10.838;2024-03-08T21:40:29;9.67;93.82
63407;SHT31;49543;45.892;10.838;2024-03-08T21:42:56;9.70;93.88
63407;SHT31;49543;45.892;10.838;2024-03-08T21:45:27;9.67;93.90
63407;SHT31;49543;45.892;10.838;2024-03-08T21:47:57;9.67;94.09
63407;SHT31;49543;45.892;10.838;2024-03-08T21:50:25;9.67;94.07
63407;SHT31;49543;45.892;10.838;2024-03-08T21:52:52;9.67;94.04
63407;SHT31;49543;45.892;10.838;2024-03-08T21:55:18;9.66;94.02
63407;SHT31;49543;45.892;10.838;2024-03-08T21:57:44;9.65;93.98
63407;SHT31;49543;45.892;10.838;2024-03-08T22:00:30;9.65;94.07
63407;SHT31;49543;45.892;10.838;2024-03-08T22:02:58;9.65;94.08
63407;SHT31;49543;45.892;10.838;2024-03-08T22:05:25;9.63;94.07
63407;SHT31;49543;45.892;10.838;2024-03-08T22:07:51;9.62;94.16
63407;SHT31;49543;45.892;10.838;2024-03-08T22:10:18;9.63;94.18
63407;SHT31;49543;45.892;10.838;2024-03-08T22:12:56;9.60;94.09
63407;SHT31;49543;45.892;10.838;2024-03-08T22:15:23;9.62;94.11
63407;SHT31;49543;45.892;10.838;2024-03-08T22:17:55;9.60;94.04
63407;SHT31;49543;45.892;10.838;2024-03-08T22:20:29;9.56;94.03
63407;SHT31;49543;45.892;10.838;2024-03-08T22:23:17;9.59;93.96
63407;SHT31;49543;45.892;10.838;2024-03-08T22:25:50;9.55;93.92
63407;SHT31;49543;45.892;10.838;2024-03-08T22:28:19;9.56;94.02
63407;SHT31;49543;45.892;10.838;2024-03-08T22:30:52;9.56;94.13
63407;SHT31;49543;45.892;10.838;2024-03-08T22:33:19;9.56;94.20
63407;SHT31;49543;45.892;10.838;2024-03-08T22:35:44;9.60;94.21
63407;SHT31;49543;45.892;10.838;2024-03-08T22:38:10;9.59;94.07
63407;SHT31;49543;45.892;10.838;2024-03-08T22:40:36;9.60;94.03
63407;SHT31;49543;45.892;10.838;2024-03-08T22:43:02;9.57;93.91
63407;SHT31;49543;45.892;10.838;2024-03-08T22:45:27;9.60;94.00
63407;SHT31;49543;45.892;10.838;2024-03-08T22:47:53;9.62;93.99
63407;SHT31;49543;45.892;10.838;2024-03-08T22:50:19;9.63;94.07
63407;SHT31;49543;45.892;10.838;2024-03-08T22:52:49;9.66;94.04
63407;SHT31;49543;45.892;10.838;2024-03-08T22:55:15;9.69;94.06
63407;SHT31;49543;45.892;10.838;2024-03-08T22:57:44;9.70;94.01
63407;SHT31;49543;45.892;10.838;2024-03-08T23:00:10;9.67;93.96
63407;SHT31;49543;45.892;10.838;2024-03-08T23:02:48;9.69;93.99
63407;SHT31;49543;45.892;10.838;2024-03-08T23:05:14;9.67;94.05
63407;SHT31;49543;45.892;10.838;2024-03-08T23:07:44;9.66;94.08
63407;SHT31;49543;45.892;10.838;2024-03-08T23:10:09;9.69;94.05
63407;SHT31;49543;45.892;10.838;2024-03-08T23:12:39;9.66;94.04
63407;SHT31;49543;45.892;10.838;2024-03-08T23:15:05;9.66;94.14
63407;SHT31;49543;45.892;10.838;2024-03-08T23:17:44;9.65;94.19
63407;SHT31;49543;45.892;10.838;2024-03-08T23:20:11;9.66;94.29
63407;SHT31;49543;45.892;10.838;2024-03-08T23:22:44;9.65;94.38
63407;SHT31;49543;45.892;10.838;2024-03-08T23:25:15;9.60;94.45
63407;SHT31;49543;45.892;10.838;2024-03-08T23:27:46;9.63;94.48
63407;SHT31;49543;45.892;10.838;2024-03-08T23:30:15;9.60;94.57
63407;SHT31;49543;45.892;10.838;2024-03-08T23:32:40;9.62;94.58
63407;SHT31;49543;45.892;10.838;2024-03-08T23:35:06;9.56;94.67
63407;SHT31;49543;45.892;10.838;2024-03-08T23:37:38;9.56;94.66
63407;SHT31;49543;45.892;10.838;2024-03-08T23:40:10;9.55;94.73
63407;SHT31;49543;45.892;10.838;2024-03-08T23:42:41;9.50;94.74
63407;SHT31;49543;45.892;10.838;2024-03-08T23:45:08;9.49;94.83
63407;SHT31;49543;45.892;10.838;2024-03-08T23:47:52;9.48;94.85
63407;SHT31;49543;45.892;10.838;2024-03-08T23:50:27;9.49;94.98
63407;SHT31;49543;45.892;10.838;2024-03-08T23:53:00;9.45;95.04
